Time;durP1;ratioP1;P1;durP2;ratioP2;P2;SDS_P1;SDS_P2;PMS_P1;PMS_P2;Temp;Humidity;BMP_temperature;BMP_pressure;BME280_temperature;BME280_humidity;BME280_pressure;Samples;Min_cycle;Max_cycle;Signal;HPM_P1;HPM_P2
2022/05/04 00:00:12;;;;;;;8.30;5.53;;;13.20;99.90;;;;;;5056031;28;20016;-61
2022/05/04 00:02:39;;;;;;;10.52;5.57;;;13.30;99.90;;;;;;5055227;28;20035;-61
2022/05/04 00:05:06;;;;;;;7.95;5.15;;;13.30;99.90;;;;;;5072815;28;20031;-61
2022/05/04 00:07:32;;;;;;;8.40;5.30;;;13.20;99.90;;;;;;5055528;28;20048;-61
2022/05/04 00:09:58;;;;;;;9.13;5.20;;;13.30;99.90;;;;;;5073084;28;20045;-61
2022/05/04 00:12:24;;;;;;;10.85;5.75;;;13.20;99.90;;;;;;5073084;28;20070;-61
2022/05/04 00:14:50;;;;;;;8.40;5.93;;;13.30;99.90;;;;;;5055248;28;20020;-63
2022/05/04 00:17:16;;;;;;;10.07;6.32;;;13.30;99.90;;;;;;5055250;28;20052;-61
2022/05/04 00:19:42;;;;;;;10.50;5.95;;;13.30;99.90;;;;;;5055534;28;20017;-61
2022/05/04 00:22:08;;;;;;;11.10;6.13;;;13.10;99.90;;;;;;5073498;28;20031;-62
2022/05/04 00:24:33;;;;;;;8.55;5.30;;;13.10;99.90;;;;;;5073194;28;20033;-63
2022/05/04 00:26:59;;;;;;;12.15;5.75;;;13.20;99.90;;;;;;5055267;28;20029;-61
2022/05/04 00:29:24;;;;;;;8.40;5.82;;;13.20;99.90;;;;;;5055120;28;20020;-62
2022/05/04 00:31:50;;;;;;;11.27;6.50;;;13.10;99.90;;;;;;5056087;28;20115;-62
2022/05/04 00:34:16;;;;;;;10.95;6.18;;;13.20;99.90;;;;;;5073199;28;20024;-62
2022/05/04 00:36:42;;;;;;;9.02;6.63;;;13.10;99.90;;;;;;5072963;28;20032;-60
2022/05/04 00:39:07;;;;;;;11.65;6.65;;;13.10;99.90;;;;;;5073273;28;20025;-62
2022/05/04 00:41:33;;;;;;;12.98;6.20;;;13.20;99.90;;;;;;5055053;28;20016;-62
2022/05/04 00:43:58;;;;;;;15.90;6.68;;;13.10;99.90;;;;;;5055210;28;20032;-62
2022/05/04 00:46:25;;;;;;;9.32;5.70;;;13.10;99.90;;;;;;5055146;28;20032;-62
2022/05/04 00:48:50;;;;;;;10.88;6.57;;;12.90;99.90;;;;;;5072817;28;20028;-62
2022/05/04 00:51:17;;;;;;;13.55;6.60;;;12.90;99.90;;;;;;5054690;28;20025;-62
2022/05/04 00:53:44;;;;;;;9.77;6.20;;;13.00;99.90;;;;;;5072719;28;20020;-60
2022/05/04 00:56:11;;;;;;;10.57;6.63;;;13.00;99.90;;;;;;5072790;28;20071;-62
2022/05/04 00:58:57;;;;;;;15.70;6.43;;;13.00;99.90;;;;;;5055330;28;20078;-62
2022/05/04 01:01:30;;;;;;;10.63;6.55;;;12.90;99.90;;;;;;5073143;28;20024;-62
2022/05/04 01:03:57;;;;;;;8.02;5.38;;;12.90;99.90;;;;;;5054938;28;20033;-60
2022/05/04 01:06:24;;;;;;;9.45;6.10;;;13.00;99.90;;;;;;5055219;28;20166;-62
2022/05/04 01:08:51;;;;;;;13.23;6.07;;;13.00;99.90;;;;;;5054978;28;20032;-62
2022/05/04 01:11:18;;;;;;;11.90;7.20;;;13.00;99.90;;;;;;5072745;28;20023;-62
2022/05/04 01:14:01;;;;;;;8.80;5.90;;;12.90;99.90;;;;;;5054621;28;20046;-62
2022/05/04 01:16:28;;;;;;;11.77;6.88;;;12.90;99.90;;;;;;5056921;28;20017;-62
2022/05/04 01:18:54;;;;;;;13.48;6.00;;;12.90;99.90;;;;;;5058533;28;20031;-62
2022/05/04 01:21:19;;;;;;;10.98;6.25;;;12.80;99.90;;;;;;5076267;28;20017;-62
2022/05/04 01:23:46;;;;;;;15.32;6.80;;;12.80;99.90;;;;;;5058555;28;20097;-62
2022/05/04 01:26:16;;;;;;;13.27;7.07;;;12.80;99.90;;;;;;5076185;28;20107;-62
2022/05/04 01:28:45;;;;;;;12.65;6.90;;;12.70;99.90;;;;;;5076186;28;20024;-62
2022/05/04 01:31:11;;;;;;;9.95;6.15;;;12.60;99.90;;;;;;5058303;28;20024;-62
2022/05/04 01:33:38;;;;;;;10.80;6.15;;;12.60;99.90;;;;;;5075948;28;20082;-63
2022/05/04 01:36:04;;;;;;;10.65;5.72;;;12.60;99.90;;;;;;5058877;28;20075;-62
2022/05/04 01:38:29;;;;;;;11.70;6.10;;;12.70;99.90;;;;;;5058407;28;20020;-63
2022/05/04 01:40:55;;;;;;;10.38;6.22;;;12.60;99.90;;;;;;5076063;28;20032;-62
2022/05/04 01:43:21;;;;;;;12.40;6.05;;;12.60;99.90;;;;;;5075890;28;20020;-62
2022/05/04 01:45:46;;;;;;;10.68;6.03;;;12.70;99.90;;;;;;5058015;28;20032;-61
2022/05/04 01:48:12;;;;;;;11.38;6.47;;;12.70;99.90;;;;;;5057960;28;20044;-62
2022/05/04 01:50:38;;;;;;;11.02;6.78;;;12.60;99.90;;;;;;5057754;28;20482;-62
2022/05/04 01:53:03;;;;;;;15.02;7.05;;;12.70;99.90;;;;;;5075563;28;20024;-62
2022/05/04 01:55:33;;;;;;;12.73;6.57;;;12.60;99.90;;;;;;5075588;28;20024;-62
2022/05/04 01:57:59;;;;;;;10.25;5.75;;;12.50;99.90;;;;;;5075563;28;20028;-62
2022/05/04 02:00:25;;;;;;;8.73;5.85;;;12.50;99.90;;;;;;5075701;28;20027;-62
2022/05/04 02:02:51;;;;;;;11.20;5.32;;;12.50;99.90;;;;;;5057604;28;20117;-62
2022/05/04 02:05:17;;;;;;;11.88;6.85;;;12.60;99.90;;;;;;5057262;28;20036;-62
2022/05/04 02:07:43;;;;;;;10.63;6.10;;;12.60;99.90;;;;;;5075704;28;20025;-62
2022/05/04 02:10:11;;;;;;;12.02;6.68;;;12.70;99.90;;;;;;5057427;28;20029;-62
2022/05/04 02:12:37;;;;;;;10.02;6.07;;;12.70;99.90;;;;;;5057567;28;20111;-62
2022/05/04 02:15:04;;;;;;;12.57;7.18;;;12.70;99.90;;;;;;5057604;28;20021;-63
2022/05/04 02:17:30;;;;;;;11.90;6.63;;;12.60;99.90;;;;;;5075322;28;20090;-63
2022/05/04 02:19:56;;;;;;;11.55;6.88;;;12.60;99.90;;;;;;5057707;28;20028;-62
2022/05/04 02:22:21;;;;;;;8.88;6.38;;;12.60;99.90;;;;;;5057141;28;20020;-62
2022/05/04 02:24:47;;;;;;;12.13;6.50;;;12.60;99.90;;;;;;5057128;28;20020;-62
2022/05/04 02:27:12;;;;;;;12.40;6.93;;;12.70;99.90;;;;;;5056681;28;20024;-63
2022/05/04 02:29:38;;;;;;;9.82;6.28;;;12.60;99.90;;;;;;5075224;28;20104;-62
2022/05/04 02:32:04;;;;;;;12.70;7.57;;;12.70;99.90;;;;;;5058118;28;20516;-62
2022/05/04 02:34:30;;;;;;;16.63;7.97;;;12.60;99.90;;;;;;5057274;28;20031;-62
2022/05/04 02:39:40;;;;;;;12.40;7.40;;;12.50;99.90;;;;;;5075470;28;20027;-62
2022/05/04 02:42:06;;;;;;;14.50;7.40;;;12.50;99.90;;;;;;5074906;28;20021;-62
2022/05/04 02:44:31;;;;;;;12.23;7.18;;;12.50;99.90;;;;;;5057025;28;20021;-61
2022/05/04 02:46:57;;;;;;;13.40;6.03;;;12.50;99.90;;;;;;5074992;28;20032;-62
2022/05/04 02:49:23;;;;;;;16.95;6.78;;;12.60;99.90;;;;;;5056834;28;20028;-62
2022/05/04 02:51:48;;;;;;;11.07;6.90;;;12.50;99.90;;;;;;5075172;28;20051;-62
2022/05/04 02:54:14;;;;;;;11.63;6.13;;;12.50;99.90;;;;;;5074533;28;20027;-62
2022/05/04 02:56:40;;;;;;;14.23;6.70;;;12.50;99.90;;;;;;5074845;28;20048;-62
2022/05/04 02:59:06;;;;;;;14.93;7.70;;;12.50;99.90;;;;;;5056656;28;20020;-62
2022/05/04 03:04:15;;;;;;;13.55;7.40;;;12.30;99.90;;;;;;5075092;28;20094;-62
2022/05/04 03:06:42;;;;;;;10.65;6.68;;;12.40;99.90;;;;;;5075110;28;20421;-63
2022/05/04 03:09:10;;;;;;;10.68;7.22;;;12.40;99.90;;;;;;5074546;28;20077;-62
2022/05/04 03:11:55;;;;;;;14.82;7.32;;;12.40;99.90;;;;;;5056278;28;20025;-62
2022/05/04 03:14:21;;;;;;;17.23;8.35;;;12.30;99.90;;;;;;5056955;28;20028;-62
2022/05/04 03:16:51;;;;;;;11.77;6.63;;;12.40;99.90;;;;;;5056809;28;20028;-62
2022/05/04 03:19:17;;;;;;;11.52;6.57;;;12.40;99.90;;;;;;5074512;28;20020;-62
2022/05/04 03:21:43;;;;;;;12.38;6.20;;;12.40;99.90;;;;;;5074082;28;20024;-62
2022/05/04 03:24:09;;;;;;;12.65;6.88;;;12.40;99.90;;;;;;5074032;28;20029;-62
2022/05/04 03:26:35;;;;;;;14.38;5.90;;;12.40;99.90;;;;;;5073712;28;20024;-63
2022/05/04 03:29:02;;;;;;;12.32;7.10;;;12.40;99.90;;;;;;5074205;28;20103;-62
2022/05/04 03:31:28;;;;;;;13.70;7.05;;;12.30;99.90;;;;;;5074035;28;20025;-60
2022/05/04 03:33:53;;;;;;;11.82;6.47;;;12.40;99.90;;;;;;5056085;28;20025;-62
2022/05/04 03:36:19;;;;;;;10.75;6.45;;;12.40;99.90;;;;;;5073700;28;20047;-62
2022/05/04 03:38:45;;;;;;;10.15;6.28;;;12.40;99.90;;;;;;5056084;28;20150;-62
2022/05/04 03:41:11;;;;;;;14.05;6.68;;;12.40;99.90;;;;;;5073593;28;20021;-63
2022/05/04 03:43:36;;;;;;;13.27;7.03;;;12.40;99.90;;;;;;5073548;28;20029;-62
2022/05/04 03:46:20;;;;;;;12.68;7.43;;;12.30;99.90;;;;;;5055688;28;20040;-62
2022/05/04 03:48:48;;;;;;;11.35;6.28;;;12.20;99.90;;;;;;5073401;28;20025;-61
2022/05/04 03:51:16;;;;;;;11.57;6.55;;;12.20;99.90;;;;;;5073392;28;20080;-60
2022/05/04 03:53:42;;;;;;;12.73;6.43;;;12.20;99.90;;;;;;5056012;28;20051;-62
2022/05/04 03:56:08;;;;;;;14.68;8.23;;;12.20;99.90;;;;;;5073334;28;20367;-62
2022/05/04 03:58:34;;;;;;;13.32;6.38;;;12.10;99.90;;;;;;5055753;28;20111;-62
2022/05/04 04:01:00;;;;;;;13.05;6.93;;;12.20;99.90;;;;;;5055289;28;20107;-61
2022/05/04 04:03:26;;;;;;;12.80;6.90;;;12.20;99.90;;;;;;5055150;28;20028;-62
2022/05/04 04:05:52;;;;;;;14.02;7.38;;;12.10;99.90;;;;;;5073713;28;20091;-63
2022/05/04 04:08:17;;;;;;;10.57;5.97;;;12.10;99.90;;;;;;5055290;28;20024;-62
2022/05/04 04:10:43;;;;;;;13.48;6.63;;;12.10;99.90;;;;;;5054973;28;20028;-62
2022/05/04 04:13:08;;;;;;;15.63;8.15;;;12.20;99.90;;;;;;5072699;28;20103;-62
2022/05/04 04:15:34;;;;;;;12.32;6.63;;;12.20;99.90;;;;;;5054982;28;20051;-61
2022/05/04 04:18:00;;;;;;;13.68;7.35;;;12.20;99.90;;;;;;5054820;28;20021;-60
2022/05/04 04:23:10;;;;;;;12.60;6.82;;;12.30;99.90;;;;;;5073113;28;20070;-62
2022/05/04 04:25:36;;;;;;;13.07;6.50;;;12.30;99.90;;;;;;5055213;28;20021;-62
2022/05/04 04:28:02;;;;;;;12.40;6.70;;;12.30;99.90;;;;;;5055633;28;20029;-62
2022/05/04 04:30:28;;;;;;;11.05;6.78;;;12.40;99.90;;;;;;5054995;28;20134;-62
2022/05/04 04:32:53;;;;;;;12.57;6.78;;;12.40;99.90;;;;;;5055359;28;20116;-62
2022/05/04 04:35:19;;;;;;;12.40;6.60;;;12.40;99.90;;;;;;5055401;28;20028;-61
2022/05/04 04:37:45;;;;;;;12.85;6.32;;;12.40;99.90;;;;;;5073608;28;20032;-62
2022/05/04 04:40:10;;;;;;;14.13;7.25;;;12.40;99.90;;;;;;5055426;28;20024;-61
2022/05/04 04:42:36;;;;;;;18.85;8.10;;;12.40;99.90;;;;;;5073160;28;20465;-60
2022/05/04 04:45:02;;;;;;;16.63;7.15;;;12.40;99.90;;;;;;5055431;28;20489;-61
2022/05/04 04:47:29;;;;;;;14.05;7.20;;;12.40;99.90;;;;;;5055766;28;20050;-62
2022/05/04 04:49:56;;;;;;;11.63;6.40;;;12.40;99.90;;;;;;5073496;28;20138;-62
2022/05/04 04:52:22;;;;;;;12.65;7.30;;;12.40;99.90;;;;;;5058992;28;20052;-61
2022/05/04 04:54:48;;;;;;;12.68;6.93;;;12.40;99.90;;;;;;5077290;28;20532;-60
2022/05/04 04:57:14;;;;;;;10.00;6.43;;;12.40;99.90;;;;;;5059143;28;20016;-62
2022/05/04 04:59:39;;;;;;;13.63;6.75;;;12.40;99.90;;;;;;5077140;28;20023;-61
2022/05/04 05:02:05;;;;;;;17.40;7.38;;;12.40;99.90;;;;;;5059043;28;20046;-62
2022/05/04 05:04:30;;;;;;;9.88;6.20;;;12.50;99.90;;;;;;5059067;28;20032;-62
2022/05/04 05:06:56;;;;;;;11.80;6.15;;;12.50;99.90;;;;;;5059273;28;20471;-64
2022/05/04 05:09:22;;;;;;;15.73;7.43;;;12.50;99.90;;;;;;5058902;28;20035;-62
2022/05/04 05:11:47;;;;;;;12.45;6.72;;;12.60;99.90;;;;;;5059059;28;20020;-62
2022/05/04 05:16:57;;;;;;;10.90;6.97;;;12.70;99.90;;;;;;5076992;28;20044;-61
2022/05/04 05:19:23;;;;;;;12.73;6.55;;;12.80;99.90;;;;;;5058749;28;20391;-61
2022/05/04 05:21:48;;;;;;;15.73;7.18;;;12.90;99.90;;;;;;5058729;28;20107;-63
2022/05/04 05:24:14;;;;;;;15.25;6.85;;;13.00;99.90;;;;;;5058744;28;20417;-62
2022/05/04 05:26:40;;;;;;;13.98;6.75;;;13.10;99.90;;;;;;5076866;28;20129;-61
2022/05/04 05:29:05;;;;;;;16.75;7.80;;;13.10;99.90;;;;;;5059036;28;20020;-62
2022/05/04 05:31:31;;;;;;;12.93;6.15;;;13.20;99.90;;;;;;5076652;28;20024;-62
2022/05/04 05:33:56;;;;;;;12.00;7.97;;;13.40;99.90;;;;;;5076391;28;20025;-62
2022/05/04 05:36:22;;;;;;;14.57;7.38;;;13.50;99.90;;;;;;5058379;28;20016;-61
2022/05/04 05:38:47;;;;;;;13.85;6.70;;;13.70;99.90;;;;;;5076563;28;20025;-62
2022/05/04 05:41:13;;;;;;;10.05;5.60;;;13.80;99.90;;;;;;5076140;28;20036;-62
2022/05/04 05:43:39;;;;;;;14.48;6.80;;;13.90;99.90;;;;;;5058265;28;20024;-62
2022/05/04 05:46:05;;;;;;;13.80;6.70;;;14.00;99.90;;;;;;5076160;28;20035;-60
2022/05/04 05:48:30;;;;;;;14.93;7.07;;;14.00;99.90;;;;;;5058286;28;20066;-61
2022/05/04 05:50:56;;;;;;;11.98;6.45;;;14.10;99.90;;;;;;5058064;28;20134;-61
2022/05/04 05:53:22;;;;;;;12.45;6.72;;;14.20;99.90;;;;;;5058840;28;20025;-60
2022/05/04 05:55:49;;;;;;;9.93;5.93;;;14.40;99.90;;;;;;5058133;28;20033;-62
2022/05/04 05:58:15;;;;;;;8.43;5.70;;;14.20;99.90;;;;;;5076413;28;20036;-60
2022/05/04 06:00:41;;;;;;;12.32;7.18;;;14.30;99.90;;;;;;5057896;28;20016;-61
2022/05/04 06:03:06;;;;;;;11.32;6.63;;;14.40;99.90;;;;;;5057256;28;20033;-62
2022/05/04 06:05:32;;;;;;;11.18;5.90;;;14.60;99.90;;;;;;5058003;28;20033;-61
2022/05/04 06:07:57;;;;;;;11.02;6.82;;;14.40;99.90;;;;;;5057822;28;20052;-61
2022/05/04 06:10:23;;;;;;;13.00;6.50;;;14.20;99.90;;;;;;5058074;28;20524;-63
2022/05/04 06:12:49;;;;;;;10.25;6.50;;;14.30;99.90;;;;;;5075514;28;20040;-63
2022/05/04 06:15:17;;;;;;;14.60;7.03;;;14.50;99.90;;;;;;5057782;28;20016;-64
2022/05/04 06:17:44;;;;;;;10.60;5.45;;;14.60;99.90;;;;;;5075621;28;20016;-62
2022/05/04 06:20:10;;;;;;;11.88;6.35;;;14.60;99.90;;;;;;5075665;28;20025;-63
2022/05/04 06:22:35;;;;;;;16.75;7.28;;;14.70;99.90;;;;;;5075333;28;20021;-63
2022/05/04 06:25:01;;;;;;;12.40;6.60;;;14.60;99.90;;;;;;5075405;28;20040;-63
2022/05/04 06:27:29;;;;;;;11.93;6.03;;;14.70;99.90;;;;;;5057748;28;20021;-61
2022/05/04 06:35:23;;;;;;;13.43;6.72;;;15.40;99.90;;;;;;5075895;28;20077;-64
2022/05/04 06:37:49;;;;;;;9.02;5.38;;;15.70;99.90;;;;;;5075262;28;20020;-63
2022/05/04 06:40:14;;;;;;;9.30;5.47;;;16.00;99.90;;;;;;5057390;28;20062;-63
2022/05/04 06:42:40;;;;;;;13.35;5.53;;;16.90;99.90;;;;;;5075043;28;20028;-63
2022/05/04 06:45:06;;;;;;;12.05;6.20;;;17.70;99.90;;;;;;5057295;28;20060;-63
2022/05/04 06:47:32;;;;;;;9.02;5.70;;;18.70;99.90;;;;;;5075423;28;20050;-62
2022/05/04 06:49:57;;;;;;;12.15;5.72;;;19.60;99.90;;;;;;5057829;28;20025;-64
2022/05/04 06:52:24;;;;;;;9.60;4.93;;;20.50;99.90;;;;;;5075023;28;20027;-64
2022/05/04 06:54:50;;;;;;;11.25;5.75;;;21.50;99.90;;;;;;5074958;28;20024;-63
2022/05/04 06:57:17;;;;;;;9.93;4.75;;;22.00;99.90;;;;;;5057328;28;20090;-63
2022/05/04 06:59:43;;;;;;;12.93;6.22;;;22.50;99.90;;;;;;5056932;28;20024;-64
2022/05/04 07:02:08;;;;;;;10.15;4.40;;;22.30;99.90;;;;;;5057226;28;20027;-64
2022/05/04 07:04:34;;;;;;;12.43;6.35;;;22.30;99.90;;;;;;5056660;28;20040;-64
2022/05/04 07:06:59;;;;;;;9.55;5.80;;;21.90;99.90;;;;;;5057004;28;20372;-65
2022/05/04 07:09:25;;;;;;;11.48;6.13;;;22.10;99.90;;;;;;5074893;28;20020;-65
2022/05/04 07:11:51;;;;;;;8.48;6.07;;;22.10;99.90;;;;;;5056875;28;20056;-63
2022/05/04 07:14:16;;;;;;;11.18;7.20;;;23.00;99.90;;;;;;5074349;28;20115;-63
2022/05/04 07:16:42;;;;;;;10.38;5.53;;;23.20;99.90;;;;;;5074389;28;20025;-63
2022/05/04 07:19:08;;;;;;;8.60;5.95;;;23.90;99.90;;;;;;5056504;28;20123;-62
2022/05/04 07:21:33;;;;;;;7.30;5.43;;;24.50;98.40;;;;;;5056424;28;20058;-65
2022/05/04 07:23:59;;;;;;;9.48;5.90;;;24.60;96.50;;;;;;5056434;28;20111;-65
2022/05/04 07:26:24;;;;;;;9.98;5.90;;;24.40;97.00;;;;;;5074110;28;20020;-65
2022/05/04 07:28:50;;;;;;;9.75;6.00;;;24.90;95.50;;;;;;5057132;28;20020;-66
2022/05/04 07:31:16;;;;;;;6.90;4.70;;;25.30;95.50;;;;;;5056890;28;20028;-63
2022/05/04 07:33:41;;;;;;;7.72;4.95;;;25.80;95.10;;;;;;5057025;28;20024;-66
2022/05/04 07:36:07;;;;;;;9.55;4.85;;;26.50;94.30;;;;;;5074031;28;20024;-66
2022/05/04 07:38:32;;;;;;;6.13;4.88;;;27.10;92.00;;;;;;5074263;28;20025;-66
2022/05/04 07:43:42;;;;;;;9.25;5.50;;;26.60;89.50;;;;;;5074232;28;20040;-65
2022/05/04 07:46:07;;;;;;;7.85;5.78;;;25.90;90.20;;;;;;5073954;28;20028;-66
2022/05/04 07:48:33;;;;;;;8.75;5.57;;;25.50;90.80;;;;;;5056008;28;20032;-64
2022/05/04 07:50:59;;;;;;;9.00;5.45;;;24.90;91.20;;;;;;5073675;28;20100;-63
2022/05/04 07:53:24;;;;;;;8.43;6.05;;;24.60;92.40;;;;;;5055778;28;20028;-61
2022/05/04 07:55:50;;;;;;;8.45;5.57;;;24.40;91.50;;;;;;5073664;28;20103;-62
2022/05/04 07:58:17;;;;;;;7.68;5.30;;;24.30;92.70;;;;;;5073745;28;20099;-64
2022/05/04 08:06:12;;;;;;;9.15;5.43;;;24.20;93.00;;;;;;5073818;28;20510;-61
2022/05/04 08:08:38;;;;;;;8.32;6.40;;;24.10;91.50;;;;;;5056747;28;20056;-64
2022/05/04 08:11:05;;;;;;;9.40;5.72;;;23.40;92.00;;;;;;5055610;28;20399;-61
2022/05/04 08:13:32;;;;;;;13.73;6.93;;;23.10;93.10;;;;;;5055671;28;20029;-64
2022/05/04 08:15:58;;;;;;;7.28;4.80;;;22.80;93.30;;;;;;5056718;28;20029;-62
2022/05/04 08:18:25;;;;;;;11.88;4.45;;;22.60;94.80;;;;;;5055561;28;20052;-63
2022/05/04 08:20:51;;;;;;;6.30;5.32;;;22.60;94.10;;;;;;5073773;28;20101;-61
2022/05/04 08:23:17;;;;;;;11.95;5.80;;;23.00;93.60;;;;;;5055704;28;20075;-60
2022/05/04 08:25:43;;;;;;;7.05;4.82;;;23.60;93.10;;;;;;5055089;28;20043;-62
2022/05/04 08:28:12;;;;;;;7.53;4.90;;;23.90;92.70;;;;;;5073441;28;20032;-62
2022/05/04 08:30:39;;;;;;;6.25;4.63;;;24.10;93.80;;;;;;5073065;28;20092;-62
2022/05/04 08:33:05;;;;;;;6.35;4.20;;;24.80;92.60;;;;;;5073222;28;20017;-64
2022/05/04 08:35:32;;;;;;;7.95;5.00;;;26.00;91.70;;;;;;5055504;28;20027;-64
2022/05/04 08:37:58;;;;;;;6.30;4.50;;;26.90;89.60;;;;;;5055158;28;20467;-61
2022/05/04 08:40:24;;;;;;;8.88;6.25;;;27.80;86.50;;;;;;5073143;28;20028;-64
2022/05/04 08:42:52;;;;;;;7.45;5.05;;;27.70;82.20;;;;;;5073161;28;20025;-63
2022/05/04 08:45:18;;;;;;;10.05;4.95;;;27.30;86.30;;;;;;5055300;28;20150;-61
2022/05/04 08:47:45;;;;;;;8.63;5.53;;;28.40;81.80;;;;;;5073188;28;20473;-62
2022/05/04 08:50:13;;;;;;;6.65;5.85;;;28.10;81.20;;;;;;5055197;28;20070;-61
2022/05/04 08:52:51;;;;;;;8.40;6.15;;;28.10;78.50;;;;;;5055313;28;20484;-61
2022/05/04 08:55:17;;;;;;;14.05;6.68;;;27.40;79.50;;;;;;5055203;28;20029;-62
2022/05/04 08:57:43;;;;;;;7.10;5.57;;;26.30;81.70;;;;;;5055583;28;20023;-61
2022/05/04 09:00:10;;;;;;;9.00;5.88;;;25.70;81.80;;;;;;5055198;28;20029;-58
2022/05/04 09:02:37;;;;;;;9.18;5.00;;;24.90;85.20;;;;;;5073446;28;20021;-62
2022/05/04 09:05:23;;;;;;;9.35;6.13;;;24.80;88.70;;;;;;5073059;28;20068;-61
2022/05/04 09:07:53;;;;;;;13.63;6.30;;;24.70;84.30;;;;;;5055318;28;20028;-59
2022/05/04 09:10:27;;;;;;;10.75;5.63;;;24.10;86.20;;;;;;5055459;28;20030;-56
2022/05/04 09:12:55;;;;;;;11.18;6.57;;;23.30;87.30;;;;;;5055408;28;20025;-63
2022/05/04 09:15:28;;;;;;;9.23;5.57;;;22.80;89.30;;;;;;5054984;28;20113;-60
2022/05/04 09:18:05;;;;;;;6.65;4.80;;;22.60;90.90;;;;;;5055259;28;20021;-56
2022/05/04 09:20:52;;;;;;;11.10;6.10;;;23.10;90.70;;;;;;5054881;28;20020;-64
2022/05/04 09:23:20;;;;;;;9.25;6.15;;;23.40;89.10;;;;;;5054895;28;20035;-63
2022/05/04 09:25:56;;;;;;;9.95;5.10;;;23.50;90.30;;;;;;5072799;28;20032;-63
2022/05/04 09:28:27;;;;;;;12.07;6.18;;;24.40;89.80;;;;;;5072823;28;20080;-58
2022/05/04 09:30:56;;;;;;;8.68;5.65;;;24.50;86.80;;;;;;5073328;28;20048;-64
2022/05/04 09:33:27;;;;;;;11.93;6.15;;;24.90;87.40;;;;;;5055062;28;20029;-62
2022/05/04 09:35:57;;;;;;;5.45;4.32;;;25.70;84.60;;;;;;5054645;28;20027;-64
2022/05/04 09:46:47;;;;;;;8.52;6.10;;;29.30;77.10;;;;;;5077065;28;20058;-65
2022/05/04 09:49:14;;;;;;;9.45;6.25;;;29.10;76.70;;;;;;5058326;28;20029;-65
2022/05/04 09:51:44;;;;;;;7.15;5.65;;;29.00;75.80;;;;;;5058066;28;20028;-65
2022/05/04 09:54:20;;;;;;;10.38;5.97;;;28.50;76.30;;;;;;5058638;28;20020;-66
2022/05/04 09:56:52;;;;;;;7.65;5.82;;;28.70;77.70;;;;;;5059139;28;20120;-67
2022/05/04 09:59:20;;;;;;;9.07;4.47;;;30.10;75.50;;;;;;5076022;28;20021;-68
2022/05/04 10:01:46;;;;;;;6.80;5.35;;;31.40;74.30;;;;;;5058278;28;20386;-68
2022/05/04 10:04:12;;;;;;;6.80;5.60;;;31.80;71.20;;;;;;5057892;28;20036;-68
2022/05/04 10:06:40;;;;;;;9.52;6.50;;;32.40;67.80;;;;;;5076189;28;20024;-67
2022/05/04 10:09:06;;;;;;;7.93;6.30;;;30.90;70.40;;;;;;5075732;28;20025;-67
2022/05/04 10:11:36;;;;;;;6.97;4.97;;;31.60;70.50;;;;;;5058390;28;20031;-67
2022/05/04 10:14:05;;;;;;;9.15;5.75;;;32.00;68.40;;;;;;5075687;28;20471;-68
2022/05/04 10:16:35;;;;;;;7.72;5.95;;;32.60;66.40;;;;;;5075967;28;20059;-68
2022/05/04 10:19:04;;;;;;;9.87;6.40;;;32.60;65.40;;;;;;5057807;28;20094;-68
2022/05/04 10:21:30;;;;;;;7.32;5.75;;;32.30;64.60;;;;;;5057485;28;20697;-68
2022/05/04 10:24:01;;;;;;;7.68;5.40;;;32.00;66.00;;;;;;5057845;28;20498;-67
2022/05/04 10:26:32;;;;;;;8.43;5.07;;;31.70;65.40;;;;;;5058560;28;20029;-67
2022/05/04 10:31:53;;;;;;;8.95;5.30;;;31.00;66.40;;;;;;5076672;28;20420;-67
2022/05/04 10:34:19;;;;;;;12.73;6.13;;;30.40;65.10;;;;;;5075701;28;20021;-67
2022/05/04 10:36:52;;;;;;;7.13;5.55;;;29.80;65.90;;;;;;5058431;28;20028;-64
2022/05/04 10:39:21;;;;;;;8.25;5.88;;;28.70;67.90;;;;;;5058212;28;20082;-68
2022/05/04 10:41:47;;;;;;;7.45;4.72;;;28.50;67.40;;;;;;5057642;28;20028;-66
2022/05/04 10:44:15;;;;;;;8.65;5.38;;;28.40;70.00;;;;;;5077120;28;20391;-66
2022/05/04 10:46:44;;;;;;;6.97;4.97;;;28.10;69.60;;;;;;5075407;28;20036;-65
2022/05/04 10:49:16;;;;;;;6.68;5.78;;;27.50;69.60;;;;;;5056706;28;20063;-66
2022/05/04 10:51:46;;;;;;;9.20;5.78;;;27.30;70.80;;;;;;5057381;28;20043;-67
2022/05/04 10:54:21;;;;;;;6.28;5.07;;;26.30;70.30;;;;;;5074822;28;20020;-68
2022/05/04 10:56:49;;;;;;;6.50;4.40;;;25.70;73.20;;;;;;5057525;28;20032;-68
2022/05/04 10:59:26;;;;;;;10.05;6.70;;;25.70;72.60;;;;;;5058775;28;20024;-67
2022/05/04 11:01:57;;;;;;;6.32;4.30;;;25.10;72.70;;;;;;5057983;28;20032;-66
2022/05/04 11:04:24;;;;;;;8.95;4.50;;;24.90;73.80;;;;;;5058101;28;20021;-69
2022/05/04 11:06:52;;;;;;;6.97;4.53;;;25.10;75.50;;;;;;5057622;28;20105;-66
2022/05/04 11:09:39;;;;;;;8.15;4.70;;;24.60;75.70;;;;;;5075245;28;20032;-66
2022/05/04 11:12:06;;;;;;;8.55;5.47;;;24.00;74.90;;;;;;5074579;28;20021;-66
2022/05/04 11:14:34;;;;;;;8.45;5.63;;;23.80;78.60;;;;;;5056425;28;20031;-66
2022/05/04 11:17:01;;;;;;;9.65;5.55;;;23.80;75.60;;;;;;5074699;28;20056;-66
2022/05/04 11:19:32;;;;;;;5.35;4.25;;;23.70;75.60;;;;;;5058323;28;20063;-66
2022/05/04 11:21:58;;;;;;;7.95;6.00;;;23.80;77.00;;;;;;5074612;28;20017;-66
2022/05/04 11:24:28;;;;;;;7.20;4.07;;;23.20;75.40;;;;;;5074420;28;20047;-66
2022/05/04 11:26:54;;;;;;;5.15;3.85;;;22.70;76.90;;;;;;5074213;28;20025;-69
2022/05/04 11:29:22;;;;;;;11.20;4.80;;;23.10;76.20;;;;;;5074373;28;20070;-66
2022/05/04 11:31:57;;;;;;;5.25;4.72;;;23.20;75.80;;;;;;5056357;28;20024;-66
2022/05/04 11:34:24;;;;;;;6.15;4.82;;;23.40;74.20;;;;;;5056994;28;20052;-66
2022/05/04 11:36:52;;;;;;;5.93;3.60;;;23.20;75.40;;;;;;5074321;28;20027;-64
2022/05/04 11:39:19;;;;;;;7.43;5.18;;;23.30;78.30;;;;;;5057230;28;20026;-67
2022/05/04 11:41:47;;;;;;;10.75;5.05;;;23.40;77.80;;;;;;5074391;28;20107;-66
2022/05/04 11:44:17;;;;;;;5.68;4.30;;;23.30;78.10;;;;;;5057386;28;20047;-67
2022/05/04 11:46:49;;;;;;;6.65;4.93;;;23.30;79.20;;;;;;5057533;28;20033;-67
2022/05/04 11:49:17;;;;;;;5.40;3.95;;;23.40;78.30;;;;;;5057659;28;20399;-66
2022/05/04 11:51:43;;;;;;;5.18;4.03;;;23.50;81.80;;;;;;5073738;28;20060;-67
2022/05/04 11:54:09;;;;;;;7.63;4.30;;;23.50;81.10;;;;;;5058300;28;20059;-67
2022/05/04 11:56:35;;;;;;;6.28;4.65;;;23.20;82.00;;;;;;5058635;28;20035;-67
2022/05/04 11:59:01;;;;;;;7.57;4.55;;;22.70;79.70;;;;;;5075307;28;20150;-67
2022/05/04 12:01:27;;;;;;;8.50;4.32;;;22.10;82.40;;;;;;5057582;28;20039;-67
2022/05/04 12:03:54;;;;;;;6.97;4.82;;;22.00;82.70;;;;;;5075430;28;20029;-66
2022/05/04 12:06:21;;;;;;;6.85;4.22;;;21.90;81.50;;;;;;5074505;28;20024;-67
2022/05/04 12:08:47;;;;;;;7.25;4.45;;;22.10;83.20;;;;;;5073608;28;20021;-64
2022/05/04 12:11:14;;;;;;;11.52;5.03;;;22.00;82.30;;;;;;5073610;28;20394;-67
2022/05/04 12:13:42;;;;;;;8.80;4.32;;;22.00;81.60;;;;;;5073722;28;20104;-68
2022/05/04 12:16:09;;;;;;;5.88;3.63;;;21.50;84.40;;;;;;5056596;28;20044;-68
2022/05/04 12:18:36;;;;;;;5.35;3.33;;;21.60;85.00;;;;;;5055853;28;20375;-68
2022/05/04 12:21:07;;;;;;;11.35;4.80;;;21.90;83.90;;;;;;5074040;28;20029;-69
2022/05/04 12:23:41;;;;;;;10.50;4.65;;;21.70;84.00;;;;;;5074591;28;20025;-67
2022/05/04 12:26:10;;;;;;;10.98;4.10;;;21.50;83.40;;;;;;5056644;28;20041;-68
2022/05/04 12:28:37;;;;;;;5.88;3.75;;;21.80;84.90;;;;;;5073453;28;20074;-66
2022/05/04 12:33:49;;;;;;;5.93;3.30;;;22.10;83.10;;;;;;5074275;28;20108;-67
2022/05/04 12:36:20;;;;;;;4.85;3.85;;;22.30;82.20;;;;;;5073683;28;20021;-68
2022/05/04 12:38:48;;;;;;;7.05;3.83;;;22.40;82.60;;;;;;5055722;28;20022;-67
2022/05/04 12:41:19;;;;;;;6.60;3.90;;;22.30;82.20;;;;;;5055659;28;20028;-68
2022/05/04 12:43:46;;;;;;;7.88;3.80;;;22.40;82.60;;;;;;5055010;28;20437;-65
2022/05/04 12:46:15;;;;;;;6.65;3.80;;;22.50;80.70;;;;;;5055421;28;20414;-65
2022/05/04 12:48:43;;;;;;;7.43;3.83;;;22.20;82.00;;;;;;5073139;28;20032;-65
2022/05/04 12:51:09;;;;;;;5.53;3.50;;;22.30;82.00;;;;;;5055352;28;20032;-65
2022/05/04 12:53:38;;;;;;;3.72;3.00;;;22.40;81.30;;;;;;5055089;28;20034;-64
2022/05/04 12:58:48;;;;;;;8.80;3.75;;;22.40;82.00;;;;;;5073150;28;20032;-65
2022/05/04 13:01:14;;;;;;;4.60;3.22;;;22.60;82.20;;;;;;5055309;28;20399;-65
2022/05/04 13:03:40;;;;;;;7.03;4.15;;;22.70;81.30;;;;;;5073360;28;20029;-65
2022/05/04 13:06:06;;;;;;;7.95;4.35;;;22.80;80.90;;;;;;5073707;28;20032;-65
2022/05/04 13:08:32;;;;;;;6.03;3.50;;;22.80;80.60;;;;;;5073208;28;20028;-65
2022/05/04 13:10:58;;;;;;;5.22;3.90;;;22.80;81.40;;;;;;5054916;28;20495;-65
2022/05/04 13:13:25;;;;;;;5.63;3.53;;;23.00;81.30;;;;;;5076837;28;20059;-64
2022/05/04 13:15:51;;;;;;;11.95;5.13;;;23.00;81.70;;;;;;5076720;28;20150;-65
2022/05/04 13:18:20;;;;;;;8.60;4.38;;;22.90;80.20;;;;;;5076734;28;20024;-65
2022/05/04 13:20:46;;;;;;;6.85;3.53;;;22.60;81.60;;;;;;5059662;28;20028;-65